createdAt,value
2018-06-14T00:00:47.218Z,101322.23
2018-06-14T00:03:16.115Z,101320.85
2018-06-14T00:05:45.092Z,101321.72
2018-06-14T00:08:13.990Z,101325.34
2018-06-14T00:10:42.917Z,101316.83
2018-06-14T00:13:11.829Z,101315.94
2018-06-14T00:15:40.757Z,101313.61
2018-06-14T00:18:09.639Z,101315.22
2018-06-14T00:20:38.531Z,101313.88
2018-06-14T00:23:07.469Z,101308.59
2018-06-14T00:25:36.393Z,101305.59
2018-06-14T00:28:05.326Z,101306.27
2018-06-14T00:30:34.230Z,101299.03
2018-06-14T00:33:03.213Z,101304.55
2018-06-14T00:35:32.165Z,101304.09
2018-06-14T00:38:01.130Z,101299.88
2018-06-14T00:40:30.134Z,101302.98
2018-06-14T00:42:59.048Z,101312.37
2018-06-14T00:45:27.954Z,101312.16
2018-06-14T00:47:56.945Z,101313.73
2018-06-14T00:50:25.848Z,101311.37
2018-06-14T00:52:54.777Z,101313.50
2018-06-14T00:55:23.696Z,101314.93
2018-06-14T00:57:52.587Z,101312.61
2018-06-14T01:00:21.516Z,101312.95
2018-06-14T01:02:50.418Z,101308.53
2018-06-14T01:05:19.329Z,101307.69
2018-06-14T01:07:48.234Z,101297.20
2018-06-14T01:10:17.164Z,101309.75
2018-06-14T01:12:46.093Z,101311.90
2018-06-14T01:15:14.989Z,101314.10
2018-06-14T01:17:44.222Z,101314.27
2018-06-14T01:20:13.129Z,101313.97
2018-06-14T01:22:42.023Z,101315.76
2018-06-14T01:25:10.956Z,101316.64
2018-06-14T01:27:39.917Z,101317.40
2018-06-14T01:30:08.842Z,101311.59
2018-06-14T01:32:37.758Z,101315.30
2018-06-14T01:35:06.661Z,101313.41
2018-06-14T01:37:47.018Z,101319.50
2018-06-14T01:40:15.956Z,101323.77
2018-06-14T01:42:44.885Z,101318.88
2018-06-14T01:45:13.784Z,101314.58
2018-06-14T01:47:42.704Z,101303.33
2018-06-14T01:50:11.606Z,101298.88
2018-06-14T01:52:40.529Z,101304.21
2018-06-14T01:55:09.442Z,101302.52
2018-06-14T01:57:38.374Z,101305.45
2018-06-14T02:00:07.285Z,101300.20
2018-06-14T02:02:36.583Z,101306.06
2018-06-14T02:05:05.646Z,101298.15
2018-06-14T02:07:34.553Z,101293.52
2018-06-14T02:10:03.496Z,101292.81
2018-06-14T02:12:32.430Z,101298.62
2018-06-14T02:15:01.854Z,101297.22
2018-06-14T02:17:30.826Z,101292.64
2018-06-14T02:19:59.754Z,101294.52
2018-06-14T02:22:28.643Z,101295.77
2018-06-14T02:24:57.576Z,101295.59
2018-06-14T02:27:26.482Z,101294.70
2018-06-14T02:29:55.390Z,101298.64
2018-06-14T02:32:24.323Z,101306.30
2018-06-14T02:34:53.254Z,101289.55
2018-06-14T02:37:22.558Z,101286.05
2018-06-14T02:39:51.478Z,101278.60
2018-06-14T02:42:20.378Z,101276.48
2018-06-14T02:44:49.312Z,101278.27
2018-06-14T02:47:18.230Z,101278.72
2018-06-14T02:49:47.144Z,101271.20
2018-06-14T02:52:16.035Z,101275.80
2018-06-14T02:54:44.987Z,101267.79
2018-06-14T02:57:13.911Z,101269.86
2018-06-14T02:59:42.856Z,101271.14
2018-06-14T03:02:11.770Z,101267.93
2018-06-14T03:04:40.751Z,101264.00
2018-06-14T03:07:09.750Z,101265.92
2018-06-14T03:09:38.954Z,101260.60
2018-06-14T03:12:07.961Z,101262.16
2018-06-14T03:14:36.858Z,101263.30
2018-06-14T03:17:05.778Z,101260.60
2018-06-14T03:19:34.696Z,101260.95
2018-06-14T03:22:03.610Z,101259.06
2018-06-14T03:24:32.537Z,101259.95
2018-06-14T03:27:01.474Z,101259.58
2018-06-14T03:29:30.400Z,101258.67
2018-06-14T03:31:59.299Z,101254.27
2018-06-14T03:34:28.226Z,101254.19
2018-06-14T03:36:57.145Z,101255.70
2018-06-14T03:39:26.056Z,101255.55
2018-06-14T03:41:55.081Z,101258.39
2018-06-14T03:44:24.177Z,101258.40
2018-06-14T03:46:53.091Z,101256.89
2018-06-14T03:49:22.151Z,101257.69
2018-06-14T03:51:51.062Z,101258.83
2018-06-14T03:54:19.997Z,101261.81
2018-06-14T03:56:48.909Z,101259.11
2018-06-14T03:59:17.880Z,101257.17
2018-06-14T04:01:50.618Z,101259.28
2018-06-14T04:04:19.676Z,101258.44
2018-06-14T04:06:48.637Z,101254.15
2018-06-14T04:09:17.519Z,101253.13
2018-06-14T04:11:46.463Z,101251.70
2018-06-14T04:14:15.365Z,101254.89
2018-06-14T04:16:44.297Z,101250.39
2018-06-14T04:19:13.213Z,101250.84
2018-06-14T04:21:43.097Z,101247.86
2018-06-14T04:24:12.026Z,101252.83
2018-06-14T04:26:40.930Z,101252.25
2018-06-14T04:29:09.862Z,101256.81
2018-06-14T04:31:38.814Z,101253.81
2018-06-14T04:34:08.641Z,101253.03
2018-06-14T04:36:37.545Z,101254.31
2018-06-14T04:39:08.726Z,101247.66
2018-06-14T04:41:37.640Z,101242.89
2018-06-14T04:44:06.754Z,101242.75
2018-06-14T04:46:35.685Z,101241.59
2018-06-14T04:49:04.588Z,101242.47
2018-06-14T04:51:37.673Z,101246.44
2018-06-14T04:54:06.615Z,101246.02
2018-06-14T04:56:35.564Z,101245.72
2018-06-14T04:59:04.926Z,101245.02
2018-06-14T05:01:34.162Z,101240.61
2018-06-14T05:04:03.065Z,101244.48
2018-06-14T05:06:32.450Z,101236.13
2018-06-14T05:09:01.371Z,101235.06
2018-06-14T05:11:30.320Z,101231.88
2018-06-14T05:13:59.303Z,101232.54
2018-06-14T05:16:28.212Z,101241.83
2018-06-14T05:18:57.141Z,101230.30
2018-06-14T05:21:26.241Z,101227.59
2018-06-14T05:23:55.196Z,101233.48
2018-06-14T05:26:24.104Z,101226.93
2018-06-14T05:28:53.019Z,101232.57
2018-06-14T05:31:21.940Z,101230.11
2018-06-14T05:33:50.859Z,101225.70
2018-06-14T05:36:19.788Z,101233.94
2018-06-14T05:38:48.698Z,101230.22
2018-06-14T05:41:17.618Z,101230.52
2018-06-14T05:43:46.576Z,101234.05
2018-06-14T05:46:15.662Z,101231.82
2018-06-14T05:48:44.574Z,101228.84
2018-06-14T05:51:13.468Z,101217.70
2018-06-14T05:53:42.378Z,101207.02
2018-06-14T05:56:11.401Z,101218.54
2018-06-14T05:58:40.288Z,101212.34
2018-06-14T06:01:09.204Z,101214.31
2018-06-14T06:03:38.096Z,101209.17
2018-06-14T06:06:07.027Z,101212.18
2018-06-14T06:08:35.982Z,101209.72
2018-06-14T06:11:04.916Z,101210.77
2018-06-14T06:13:33.836Z,101214.73
2018-06-14T06:16:02.759Z,101217.45
2018-06-14T06:18:31.693Z,101217.75
2018-06-14T06:21:00.609Z,101214.09
2018-06-14T06:23:29.828Z,101212.98
2018-06-14T06:25:59.060Z,101209.89
2018-06-14T06:28:27.980Z,101214.23
2018-06-14T06:30:56.916Z,101206.70
2018-06-14T06:33:25.932Z,101209.11
2018-06-14T06:35:54.805Z,101211.27
2018-06-14T06:38:23.732Z,101212.72
2018-06-14T06:40:52.636Z,101210.42
2018-06-14T06:43:21.721Z,101208.56
2018-06-14T06:45:50.644Z,101211.49
2018-06-14T06:48:19.569Z,101211.17
2018-06-14T06:50:48.474Z,101209.23
2018-06-14T06:53:17.731Z,101201.99
2018-06-14T06:55:47.001Z,101206.34
2018-06-14T06:58:16.246Z,101203.27
2018-06-14T07:00:45.524Z,101202.20
2018-06-14T07:03:14.419Z,101197.69
2018-06-14T07:05:43.329Z,101195.59
2018-06-14T07:08:12.270Z,101195.70
2018-06-14T07:10:41.148Z,101198.98
2018-06-14T07:13:10.066Z,101198.98
2018-06-14T07:15:42.289Z,101202.61
2018-06-14T07:18:11.418Z,101195.27
2018-06-14T07:20:40.338Z,101198.38
2018-06-14T07:23:09.253Z,101195.95
2018-06-14T07:25:38.181Z,101197.83
2018-06-14T07:28:07.205Z,101193.05
2018-06-14T07:30:36.133Z,101189.78
2018-06-14T07:33:05.126Z,101194.80
2018-06-14T07:35:34.035Z,101196.29
2018-06-14T07:38:02.950Z,101187.62
2018-06-14T07:40:31.860Z,101186.80
2018-06-14T07:43:00.857Z,101185.73
2018-06-14T07:45:29.702Z,101185.83
2018-06-14T07:47:58.747Z,101187.28
2018-06-14T07:50:27.673Z,101179.70
2018-06-14T07:52:57.246Z,101187.92
2018-06-14T07:55:26.187Z,101179.79
2018-06-14T07:57:55.086Z,101187.52
2018-06-14T08:00:24.000Z,101184.50
2018-06-14T08:02:52.919Z,101184.50
2018-06-14T08:05:21.844Z,101183.23
2018-06-14T08:07:50.776Z,101181.47
2018-06-14T08:10:19.696Z,101181.00
2018-06-14T08:12:48.586Z,101180.81
2018-06-14T08:15:17.497Z,101182.22
2018-06-14T08:17:46.402Z,101177.09
2018-06-14T08:20:15.310Z,101179.55
2018-06-14T08:22:44.265Z,101176.54
2018-06-14T08:25:13.165Z,101174.72
2018-06-14T08:27:42.068Z,101167.95
2018-06-14T08:30:10.997Z,101167.95
2018-06-14T08:32:39.923Z,101160.05
2018-06-14T08:35:09.153Z,101158.19
2018-06-14T08:37:38.058Z,101147.25
2018-06-14T08:40:07.088Z,101155.48
2018-06-14T08:42:36.012Z,101152.55
2018-06-14T08:45:04.952Z,101147.11
2018-06-14T08:47:33.853Z,101151.81
2018-06-14T08:50:02.767Z,101142.89
2018-06-14T08:52:31.711Z,101136.77
2018-06-14T08:55:00.841Z,101138.77
2018-06-14T08:57:29.766Z,101134.16
2018-06-14T08:59:58.904Z,101133.08
2018-06-14T09:02:27.821Z,101134.19
2018-06-14T09:04:56.731Z,101134.69
2018-06-14T09:07:25.631Z,101134.66
2018-06-14T09:09:54.559Z,101131.13
2018-06-14T09:12:23.500Z,101134.14
2018-06-14T09:14:52.398Z,101127.08
2018-06-14T09:17:21.311Z,101130.08
2018-06-14T09:19:50.262Z,101130.69
2018-06-14T09:22:19.180Z,101129.86
2018-06-14T09:24:48.521Z,101125.75
2018-06-14T09:27:17.432Z,101129.30
2018-06-14T09:29:46.403Z,101131.77
2018-06-14T09:32:15.313Z,101119.20
2018-06-14T09:34:44.247Z,101121.37
2018-06-14T09:37:13.165Z,101126.03
2018-06-14T09:39:42.074Z,101120.35
2018-06-14T09:42:11.021Z,101116.62
2018-06-14T09:44:39.919Z,101120.99
2018-06-14T09:47:08.865Z,101122.09
2018-06-14T09:49:37.794Z,101119.94
2018-06-14T09:52:07.232Z,101119.91
2018-06-14T09:54:36.170Z,101130.48
2018-06-14T09:57:05.081Z,101132.41
2018-06-14T09:59:34.180Z,101134.84
2018-06-14T10:02:03.082Z,101128.31
2018-06-14T10:04:32.024Z,101121.22
2018-06-14T10:07:00.990Z,101121.82
2018-06-14T10:09:29.928Z,101120.23
2018-06-14T10:11:58.852Z,101130.60
2018-06-14T10:14:27.774Z,101121.87
2018-06-14T10:16:56.675Z,101122.45
2018-06-14T10:19:25.644Z,101120.30
2018-06-14T10:21:54.566Z,101123.31
2018-06-14T10:24:23.472Z,101113.20
2018-06-14T10:26:52.403Z,101120.31
2018-06-14T10:29:21.483Z,101111.06
2018-06-14T10:31:50.845Z,101115.69
2018-06-14T10:34:19.753Z,101112.95
2018-06-14T10:36:48.652Z,101119.47
2018-06-14T10:39:17.714Z,101118.39
2018-06-14T10:41:46.668Z,101118.14
2018-06-14T10:44:15.586Z,101110.78
2018-06-14T10:46:44.500Z,101115.16
2018-06-14T10:49:13.685Z,101114.59
2018-06-14T10:51:42.606Z,101112.12
2018-06-14T10:54:11.658Z,101117.05
2018-06-14T10:56:40.593Z,101111.87
2018-06-14T10:59:09.814Z,101112.14
2018-06-14T11:01:38.741Z,101107.21
2018-06-14T11:04:07.721Z,101104.23
2018-06-14T11:06:36.624Z,101104.48
2018-06-14T11:09:08.501Z,101103.09
2018-06-14T11:11:37.424Z,101093.78
2018-06-14T11:14:06.438Z,101096.75
2018-06-14T11:16:35.514Z,101098.39
2018-06-14T11:19:04.590Z,101087.75
2018-06-14T11:21:33.733Z,101093.73
2018-06-14T11:24:03.049Z,101092.66
2018-06-14T11:26:31.996Z,101089.67
2018-06-14T11:29:00.952Z,101088.31
2018-06-14T11:31:29.868Z,101082.33
2018-06-14T11:33:58.782Z,101087.50
2018-06-14T11:36:27.690Z,101081.74
2018-06-14T11:38:56.648Z,101077.63
2018-06-14T11:41:25.576Z,101073.80
2018-06-14T11:43:54.461Z,101072.44
2018-06-14T11:46:23.371Z,101067.25
2018-06-14T11:48:52.271Z,101062.25
2018-06-14T11:51:21.179Z,101066.59
2018-06-14T11:53:50.108Z,101067.93
2018-06-14T11:56:19.033Z,101059.98
2018-06-14T11:58:47.966Z,101066.20
2018-06-14T12:01:16.855Z,101065.59
2018-06-14T12:03:45.768Z,101058.46
2018-06-14T12:06:14.679Z,101054.43
2018-06-14T12:08:43.600Z,101050.58
2018-06-14T12:11:12.494Z,101046.45
2018-06-14T12:13:41.387Z,101052.45
2018-06-14T12:16:10.272Z,101048.37
2018-06-14T12:18:39.182Z,101048.34
2018-06-14T12:21:08.339Z,101045.58
2018-06-14T12:23:37.238Z,101050.78
2018-06-14T12:26:06.250Z,101048.05
2018-06-14T12:28:35.189Z,101043.09
2018-06-14T12:31:04.132Z,101029.87
2018-06-14T12:33:33.049Z,101028.78
2018-06-14T12:36:01.965Z,101029.97
2018-06-14T12:38:30.903Z,101023.45
2018-06-14T12:40:59.845Z,101033.42
2018-06-14T12:43:28.758Z,101031.83
2018-06-14T12:45:57.698Z,101026.56
2018-06-14T12:48:26.576Z,101018.05
2018-06-14T12:50:59.144Z,101013.36
2018-06-14T12:53:28.134Z,101020.17
2018-06-14T12:55:57.067Z,101018.50
2018-06-14T12:58:26.012Z,101011.66
2018-06-14T13:00:54.855Z,101009.19
2018-06-14T13:03:23.791Z,101014.88
2018-06-14T13:05:52.714Z,101010.52
2018-06-14T13:08:21.635Z,101008.37
2018-06-14T13:10:50.549Z,101016.05
2018-06-14T13:13:19.578Z,101012.20
2018-06-14T13:15:48.495Z,101013.84
2018-06-14T13:18:17.866Z,101013.04
2018-06-14T13:20:46.812Z,101011.16
2018-06-14T13:23:16.051Z,101010.87
2018-06-14T13:25:45.158Z,101006.20
2018-06-14T13:28:17.508Z,101007.82
2018-06-14T13:30:46.517Z,101008.71
2018-06-14T13:33:15.418Z,101000.53
2018-06-14T13:35:44.386Z,101005.48
2018-06-14T13:38:13.313Z,101007.13
2018-06-14T13:40:42.243Z,100996.44
2018-06-14T13:43:11.284Z,101005.99
2018-06-14T13:45:40.386Z,101004.37
2018-06-14T13:48:09.302Z,100999.72
2018-06-14T13:50:38.218Z,101000.54
2018-06-14T13:53:07.112Z,101001.42
2018-06-14T13:55:36.112Z,101007.48
2018-06-14T13:58:04.961Z,101006.12
2018-06-14T14:00:33.888Z,101003.70
2018-06-14T14:03:02.792Z,101007.02
2018-06-14T14:05:31.723Z,101011.66
2018-06-14T14:08:00.640Z,101011.44
2018-06-14T14:10:29.548Z,101010.91
2018-06-14T14:12:58.460Z,101014.72
2018-06-14T14:15:27.387Z,101018.30
2018-06-14T14:17:58.295Z,101018.58
2018-06-14T14:20:27.188Z,101028.47
2018-06-14T14:22:56.425Z,101026.05
2018-06-14T14:25:25.819Z,101027.44
2018-06-14T14:27:55.010Z,101026.11
2018-06-14T14:30:23.950Z,101027.76
2018-06-14T14:32:52.856Z,101029.66
2018-06-14T14:35:21.777Z,101032.93
2018-06-14T14:37:50.706Z,101033.45
2018-06-14T14:40:19.687Z,101033.73
2018-06-14T14:42:48.619Z,101040.30
2018-06-14T14:45:17.519Z,101047.13
2018-06-14T14:47:46.463Z,101044.39
2018-06-14T14:50:15.377Z,101041.66
2018-06-14T14:52:44.306Z,101035.12
2018-06-14T14:55:13.195Z,101035.91
2018-06-14T14:57:42.174Z,101045.45
2018-06-14T15:00:11.090Z,101051.16
2018-06-14T15:02:39.989Z,101049.45
2018-06-14T15:05:08.915Z,101059.53
2018-06-14T15:07:37.833Z,101052.95
2018-06-14T15:10:06.757Z,101058.66
2018-06-14T15:12:35.681Z,101062.75
2018-06-14T15:15:04.592Z,101064.09
2018-06-14T15:17:33.555Z,101056.13
2018-06-14T15:20:02.445Z,101063.83
2018-06-14T15:22:31.374Z,101061.64
2018-06-14T15:25:00.286Z,101064.63
2018-06-14T15:27:29.211Z,101070.56
2018-06-14T15:29:58.136Z,101061.07
2018-06-14T15:32:27.050Z,101070.87
2018-06-14T15:34:56.032Z,101078.73
2018-06-14T15:37:28.058Z,101074.64
2018-06-14T15:39:56.987Z,101084.19
2018-06-14T15:42:26.241Z,101087.11
2018-06-14T15:44:55.149Z,101082.14
2018-06-14T15:47:24.095Z,101088.75
2018-06-14T15:49:53.007Z,101087.55
2018-06-14T15:52:21.947Z,101087.58
2018-06-14T15:56:05.692Z,101086.77
2018-06-14T15:58:34.641Z,101074.20
2018-06-14T16:01:03.538Z,101083.16
2018-06-14T16:03:32.558Z,101087.84
2018-06-14T16:06:01.730Z,101088.61
2018-06-14T16:08:30.939Z,101091.80
2018-06-14T16:11:06.063Z,101093.73
2018-06-14T16:13:35.025Z,101095.73
2018-06-14T16:16:03.931Z,101097.30
2018-06-14T16:18:33.290Z,101091.06
2018-06-14T16:21:02.225Z,101091.50
2018-06-14T16:23:31.161Z,101092.02
2018-06-14T16:26:00.105Z,101092.59
2018-06-14T16:28:29.055Z,101091.78
2018-06-14T16:30:58.180Z,101098.03
2018-06-14T16:33:27.172Z,101095.88
2018-06-14T16:35:56.426Z,101100.20
2018-06-14T16:38:25.882Z,101093.44
2018-06-14T16:40:54.843Z,101094.05
2018-06-14T16:43:23.826Z,101095.81
2018-06-14T16:45:52.755Z,101088.48
2018-06-14T16:48:21.684Z,101089.28
2018-06-14T16:50:54.381Z,101090.87
2018-06-14T16:53:23.443Z,101087.87
2018-06-14T16:55:52.452Z,101080.86
2018-06-14T16:58:21.483Z,101084.08
2018-06-14T17:00:50.401Z,101092.58
2018-06-14T17:03:19.366Z,101095.06
2018-06-14T17:05:48.300Z,101092.88
2018-06-14T17:08:17.199Z,101096.91
2018-06-14T17:10:46.144Z,101088.44
2018-06-14T17:13:15.058Z,101089.26
2018-06-14T17:15:43.965Z,101088.19
2018-06-14T17:18:12.889Z,101084.94
2018-06-14T17:20:41.824Z,101093.12
2018-06-14T17:23:10.749Z,101088.73
2018-06-14T17:25:39.697Z,101094.45
2018-06-14T17:28:08.649Z,101086.80
2018-06-14T17:30:37.562Z,101096.05
2018-06-14T17:33:06.478Z,101100.40
2018-06-14T17:35:35.463Z,101087.32
2018-06-14T17:38:04.576Z,101101.01
2018-06-14T17:40:33.973Z,101102.86
2018-06-14T17:43:03.794Z,101108.89
2018-06-14T17:45:32.741Z,101104.50
2018-06-14T17:48:01.718Z,101102.39
2018-06-14T17:50:30.637Z,101105.61
2018-06-14T17:52:59.782Z,101111.61
2018-06-14T17:55:28.667Z,101108.10
2018-06-14T17:57:57.589Z,101118.99
2018-06-14T18:00:26.577Z,101122.20
2018-06-14T18:02:55.456Z,101124.90
2018-06-14T18:05:24.364Z,101117.04
2018-06-14T18:07:53.276Z,101123.59
2018-06-14T18:10:26.087Z,101120.63
2018-06-14T18:12:55.036Z,101119.82
2018-06-14T18:15:23.961Z,101124.19
2018-06-14T18:17:52.920Z,101120.41
2018-06-14T18:20:21.786Z,101124.75
2018-06-14T18:22:50.718Z,101128.05
2018-06-14T18:25:19.607Z,101123.22
2018-06-14T18:27:48.514Z,101126.09
2018-06-14T18:30:17.431Z,101129.37
2018-06-14T18:32:46.393Z,101134.47
2018-06-14T18:35:15.280Z,101130.92
2018-06-14T18:37:44.201Z,101126.85
2018-06-14T18:40:13.122Z,101138.28
2018-06-14T18:42:42.052Z,101137.45
2018-06-14T18:45:11.058Z,101138.27
2018-06-14T18:47:40.014Z,101136.62
2018-06-14T18:50:11.070Z,101139.83
2018-06-14T18:52:39.971Z,101140.14
2018-06-14T18:55:08.921Z,101143.39
2018-06-14T18:57:37.844Z,101143.62
2018-06-14T19:00:06.770Z,101141.46
2018-06-14T19:02:35.686Z,101140.56
2018-06-14T19:05:04.643Z,101140.61
2018-06-14T19:07:33.584Z,101147.41
2018-06-14T19:10:02.470Z,101145.48
2018-06-14T19:12:31.404Z,101150.14
2018-06-14T19:15:00.340Z,101146.03
2018-06-14T19:17:29.502Z,101151.99
2018-06-14T19:19:58.372Z,101148.98
2018-06-14T19:22:27.305Z,101154.72
2018-06-14T19:24:56.506Z,101156.67
2018-06-14T19:27:25.412Z,101161.59
2018-06-14T19:29:54.617Z,101167.88
2018-06-14T19:32:23.565Z,101168.66
2018-06-14T19:34:52.517Z,101171.63
2018-06-14T19:37:21.489Z,101172.73
2018-06-14T19:39:50.427Z,101185.33
2018-06-14T19:42:19.452Z,101191.77
2018-06-14T19:44:48.351Z,101190.39
2018-06-14T19:47:17.362Z,101197.88
2018-06-14T19:49:46.283Z,101196.65
2018-06-14T19:52:15.338Z,101203.28
2018-06-14T19:54:44.293Z,101205.05
2018-06-14T19:57:13.181Z,101203.05
2018-06-14T19:59:42.076Z,101207.02
2018-06-14T20:02:11.099Z,101207.83
2018-06-14T20:04:40.313Z,101211.16
2018-06-14T20:07:09.339Z,101207.34
2018-06-14T20:09:38.260Z,101216.39
2018-06-14T20:12:07.710Z,101219.38
2018-06-14T20:14:36.625Z,101214.22
2018-06-14T20:17:05.901Z,101218.30
2018-06-14T20:19:34.829Z,101224.27
2018-06-14T20:22:03.763Z,101223.42
2018-06-14T20:24:32.669Z,101226.66
2018-06-14T20:27:01.601Z,101225.24
2018-06-14T20:29:30.518Z,101231.23
2018-06-14T20:31:59.412Z,101223.45
2018-06-14T20:34:28.373Z,101235.12
2018-06-14T20:36:57.290Z,101232.69
2018-06-14T20:39:26.199Z,101231.93
2018-06-14T20:41:55.178Z,101225.91
2018-06-14T20:44:25.047Z,101232.39
2018-06-14T20:46:54.112Z,101233.23
2018-06-14T20:49:23.016Z,101234.33
2018-06-14T20:51:51.995Z,101235.55
2018-06-14T20:54:20.857Z,101240.52
2018-06-14T20:56:49.786Z,101243.24
2018-06-14T20:59:18.713Z,101237.58
2018-06-14T21:01:47.603Z,101239.69
2018-06-14T21:04:16.653Z,101236.32
2018-06-14T21:06:45.696Z,101231.75
2018-06-14T21:09:14.673Z,101236.61
2018-06-14T21:11:43.801Z,101244.48
2018-06-14T21:14:12.724Z,101246.33
2018-06-14T21:16:41.640Z,101242.86
2018-06-14T21:19:10.554Z,101238.75
2018-06-14T21:21:39.476Z,101244.61
2018-06-14T21:24:08.416Z,101243.03
2018-06-14T21:26:37.325Z,101238.20
2018-06-14T21:29:06.238Z,101243.96
2018-06-14T21:31:35.154Z,101245.81
2018-06-14T21:34:04.099Z,101251.57
2018-06-14T21:36:33.026Z,101249.92
2018-06-14T21:39:01.955Z,101246.36
2018-06-14T21:41:30.897Z,101245.84
2018-06-14T21:43:59.787Z,101248.04
2018-06-14T21:46:28.698Z,101250.47
2018-06-14T21:48:57.638Z,101241.44
2018-06-14T21:51:26.539Z,101235.70
2018-06-14T21:53:55.453Z,101244.16
2018-06-14T21:56:24.369Z,101240.92
2018-06-14T21:58:53.272Z,101245.81
2018-06-14T22:01:22.226Z,101249.34
2018-06-14T22:03:53.950Z,101251.47
2018-06-14T22:06:22.862Z,101248.40
2018-06-14T22:08:51.784Z,101247.04
2018-06-14T22:11:20.709Z,101248.88
2018-06-14T22:13:49.619Z,101256.81
2018-06-14T22:16:18.534Z,101253.58
2018-06-14T22:18:47.512Z,101253.48
2018-06-14T22:21:16.520Z,101263.94
2018-06-14T22:23:45.672Z,101260.51
2018-06-14T22:26:14.723Z,101268.86
2018-06-14T22:28:43.623Z,101256.81
2018-06-14T22:31:12.542Z,101258.17
2018-06-14T22:33:52.697Z,101257.40
2018-06-14T22:36:21.622Z,101268.02
2018-06-14T22:38:50.911Z,101267.27
2018-06-14T22:41:19.859Z,101263.22
2018-06-14T22:43:48.768Z,101265.66
2018-06-14T22:46:17.697Z,101261.61
2018-06-14T22:48:46.601Z,101265.00
2018-06-14T22:51:18.364Z,101268.53
2018-06-14T22:53:47.416Z,101266.14
2018-06-14T22:56:16.389Z,101260.89
2018-06-14T22:58:45.468Z,101260.23
2018-06-14T23:01:52.190Z,101257.20
2018-06-14T23:04:24.334Z,101260.56
2018-06-14T23:06:53.515Z,101263.55
2018-06-14T23:10:37.579Z,101260.86
2018-06-14T23:13:07.486Z,101257.46
2018-06-14T23:15:36.645Z,101255.03
2018-06-14T23:18:05.636Z,101251.28
2018-06-14T23:20:35.502Z,101256.27
2018-06-14T23:23:08.848Z,101253.28
2018-06-14T23:25:38.231Z,101254.88
2018-06-14T23:28:07.702Z,101259.27
2018-06-14T23:30:36.628Z,101258.20
2018-06-14T23:33:05.589Z,101257.40
2018-06-14T23:35:34.502Z,101265.23
2018-06-14T23:38:03.440Z,101262.91
2018-06-14T23:40:32.353Z,101261.34
2018-06-14T23:43:01.345Z,101264.48
2018-06-14T23:45:30.398Z,101267.55
2018-06-14T23:47:59.329Z,101265.97
2018-06-14T23:50:28.529Z,101264.84
2018-06-14T23:52:57.443Z,101258.08
2018-06-14T23:55:26.685Z,101261.05
2018-06-14T23:57:55.605Z,101260.05
